Time;durP1;ratioP1;P1;durP2;ratioP2;P2;SDS_P1;SDS_P2;PMS_P1;PMS_P2;Temp;Humidity;BMP_temperature;BMP_pressure;BME280_temperature;BME280_humidity;BME280_pressure;Samples;Min_cycle;Max_cycle;Signal;HPM_P1;HPM_P2
2022/09/16 00:00:42;;;;;;;0.55;0.55;;;;;;;15.38;100.00;99848.50;7389838;19;20031;-75
2022/09/16 00:03:09;;;;;;;0.25;0.25;;;;;;;15.15;100.00;99842.88;7391396;19;20070;-75
2022/09/16 00:05:43;;;;;;;0.60;0.45;;;;;;;15.01;100.00;99843.84;7390269;19;20416;-74
2022/09/16 00:08:09;;;;;;;0.82;0.40;;;;;;;14.70;100.00;99841.22;7388996;19;20035;-75
2022/09/16 00:10:36;;;;;;;0.50;0.38;;;;;;;14.65;100.00;99849.59;7389540;19;20025;-75
2022/09/16 00:13:02;;;;;;;0.73;0.73;;;;;;;14.73;100.00;99843.00;7392678;19;20023;-75
2022/09/16 00:15:29;;;;;;;1.27;0.68;;;;;;;14.69;100.00;99845.28;7387516;19;20022;-75
2022/09/16 00:17:55;;;;;;;0.47;0.47;;;;;;;14.51;100.00;99847.75;7388892;19;20082;-75
2022/09/16 00:20:21;;;;;;;1.08;1.05;;;;;;;14.30;100.00;99841.53;7389277;19;20047;-75
2022/09/16 00:22:47;;;;;;;11.95;0.57;;;;;;;14.29;100.00;99846.34;7391994;19;20022;-75
2022/09/16 00:25:14;;;;;;;0.50;0.50;;;;;;;14.29;100.00;99856.81;7390047;19;20031;-75
2022/09/16 00:27:40;;;;;;;0.52;0.52;;;;;;;14.18;100.00;99862.31;7391879;19;20014;-75
2022/09/16 00:30:07;;;;;;;0.40;0.40;;;;;;;14.11;100.00;99857.19;7387937;19;20467;-75
2022/09/16 00:32:33;;;;;;;0.30;0.30;;;;;;;13.96;100.00;99870.56;7390915;19;20025;-74
2022/09/16 00:34:59;;;;;;;1.65;0.80;;;;;;;13.96;100.00;99864.97;7386670;19;20022;-75
2022/09/16 00:37:25;;;;;;;0.50;0.50;;;;;;;14.02;100.00;99865.78;7388352;19;20018;-75
2022/09/16 00:39:52;;;;;;;2.20;1.30;;;;;;;14.06;100.00;99867.06;7384656;19;20011;-75
2022/09/16 00:42:19;;;;;;;2.05;0.75;;;;;;;14.19;100.00;99870.22;7386487;19;20044;-75
2022/09/16 00:44:53;;;;;;;0.88;0.68;;;;;;;14.01;100.00;99864.25;7385594;19;20490;-75
2022/09/16 00:47:33;;;;;;;0.75;0.75;;;;;;;14.17;100.00;99860.78;7387868;19;20522;-75
2022/09/16 00:50:12;;;;;;;0.45;0.45;;;;;;;14.16;100.00;99862.81;7386497;19;20006;-76
2022/09/16 00:52:40;;;;;;;1.20;0.63;;;;;;;14.16;100.00;99859.25;7391263;19;20334;-75
2022/09/16 00:55:10;;;;;;;0.50;0.40;;;;;;;14.25;100.00;99856.25;7387219;19;20010;-76
2022/09/16 00:57:38;;;;;;;0.93;0.67;;;;;;;14.20;100.00;99865.38;7388680;19;20477;-76
2022/09/16 01:00:07;;;;;;;0.30;0.30;;;;;;;14.32;100.00;99867.00;7385524;19;20117;-76
2022/09/16 01:02:33;;;;;;;0.40;0.40;;;;;;;14.19;100.00;99861.03;7389337;19;20038;-76
2022/09/16 01:05:05;;;;;;;0.50;0.20;;;;;;;14.14;100.00;99864.59;7388745;19;20022;-76
2022/09/16 01:07:46;;;;;;;0.40;0.40;;;;;;;13.96;100.00;99867.78;7385492;19;20039;-76
2022/09/16 01:10:15;;;;;;;0.73;0.57;;;;;;;13.97;100.00;99869.31;7387781;19;20471;-75
2022/09/16 01:12:43;;;;;;;0.47;0.35;;;;;;;13.95;100.00;99877.44;7390385;19;20022;-76
2022/09/16 01:15:12;;;;;;;0.52;0.52;;;;;;;13.90;100.00;99872.56;7386962;19;20438;-76
2022/09/16 01:17:44;;;;;;;1.85;0.40;;;;;;;13.82;100.00;99872.25;7385712;19;20018;-76
2022/09/16 01:20:30;;;;;;;2.50;0.50;;;;;;;13.76;100.00;99879.06;7386852;19;20015;-76
2022/09/16 01:23:08;;;;;;;0.47;0.47;;;;;;;13.76;100.00;99877.03;7389609;19;20504;-77
2022/09/16 01:26:10;;;;;;;0.63;0.63;;;;;;;13.73;100.00;99880.06;7388113;19;20223;-76
2022/09/16 01:28:54;;;;;;;;;;;;;;;13.53;100.00;99881.69;7385349;19;20014;-77
2022/09/16 01:31:46;;;;;;;1.05;0.95;;;;;;;13.51;100.00;99889.78;7383285;19;19934;-76
2022/09/16 01:34:41;;;;;;;0.50;0.50;;;;;;;13.54;100.00;99880.41;7383632;19;20048;-76
2022/09/16 01:37:17;;;;;;;1.95;0.85;;;;;;;13.79;100.00;99894.88;7387557;19;20078;-76
2022/09/16 01:39:51;;;;;;;4.95;0.65;;;;;;;13.86;100.00;99894.44;7385357;19;20026;-76
2022/09/16 01:42:47;;;;;;;0.80;0.50;;;;;;;13.93;100.00;99893.94;7387422;19;20078;-75
2022/09/16 01:45:37;;;;;;;0.73;0.57;;;;;;;14.19;100.00;99891.84;7385797;19;20014;-75
2022/09/16 01:48:22;;;;;;;0.43;0.30;;;;;;;14.20;100.00;99891.38;7386624;19;20182;-75
2022/09/16 01:51:10;;;;;;;1.95;0.57;;;;;;;14.53;100.00;99888.00;7385529;19;20443;-74
2022/09/16 01:53:42;;;;;;;2.72;0.52;;;;;;;14.51;100.00;99895.41;7390689;19;20021;-75
2022/09/16 01:56:35;;;;;;;0.28;0.25;;;;;;;14.45;100.00;99886.94;7386283;19;20045;-75
2022/09/16 01:59:17;;;;;;;0.77;0.77;;;;;;;14.53;100.00;99896.41;7385961;19;20018;-75
2022/09/16 02:02:25;;;;;;;0.75;0.65;;;;;;;14.46;100.00;99899.69;7386316;19;20105;-75
2022/09/16 02:04:59;;;;;;;1.42;0.98;;;;;;;14.54;100.00;99895.16;7382074;19;20035;-75
2022/09/16 02:07:30;;;;;;;0.30;0.30;;;;;;;14.55;100.00;99888.28;7381934;19;20022;-75
2022/09/16 02:10:05;;;;;;;0.45;0.40;;;;;;;14.64;100.00;99882.44;7383294;19;20373;-76
2022/09/16 02:12:37;;;;;;;0.40;0.40;;;;;;;14.57;100.00;99885.75;7389070;19;20022;-76
2022/09/16 02:15:08;;;;;;;1.95;0.63;;;;;;;14.51;100.00;99879.34;7384851;19;20042;-75
2022/09/16 02:17:43;;;;;;;1.05;0.60;;;;;;;14.31;100.00;99890.69;7385132;19;20377;-76
2022/09/16 02:20:16;;;;;;;0.60;0.60;;;;;;;14.30;100.00;99892.72;7386144;19;20372;-75
2022/09/16 02:22:55;;;;;;;0.70;0.70;;;;;;;14.52;100.00;99897.69;7387506;19;20550;-75
2022/09/16 02:25:22;;;;;;;1.08;0.68;;;;;;;14.73;100.00;99885.03;7385624;19;20058;-75
2022/09/16 02:27:50;;;;;;;0.20;0.20;;;;;;;14.74;100.00;99892.19;7389534;19;20023;-75
2022/09/16 02:30:20;;;;;;;0.45;0.32;;;;;;;14.83;100.00;99894.78;7385886;19;20045;-75
2022/09/16 02:32:56;;;;;;;0.57;0.28;;;;;;;14.99;100.00;99891.25;7387883;19;20021;-75
2022/09/16 02:35:25;;;;;;;7.00;0.60;;;;;;;14.87;100.00;99895.31;7382609;19;20018;-75
2022/09/16 02:38:16;;;;;;;0.63;0.63;;;;;;;14.77;100.00;99893.22;7382864;19;20015;-75
2022/09/16 02:40:56;;;;;;;0.30;0.30;;;;;;;14.73;100.00;99893.47;7384909;19;20031;-75
2022/09/16 02:43:23;;;;;;;1.02;0.77;;;;;;;14.56;100.00;99892.63;7392175;19;20026;-75
2022/09/16 02:45:55;;;;;;;0.60;0.60;;;;;;;14.44;100.00;99896.63;7393677;19;20029;-75
2022/09/16 02:48:36;;;;;;;0.10;0.10;;;;;;;14.37;100.00;99894.28;7392259;19;20026;-75
2022/09/16 02:51:22;;;;;;;0.30;0.30;;;;;;;14.30;100.00;99886.34;7391883;19;20026;-75
2022/09/16 02:53:57;;;;;;;0.28;0.28;;;;;;;14.25;100.00;99892.69;7391285;19;20018;-75
2022/09/16 02:56:29;;;;;;;0.60;0.35;;;;;;;14.23;100.00;99892.38;7392274;19;20505;-74
2022/09/16 02:58:55;;;;;;;0.45;0.40;;;;;;;14.30;100.00;99897.56;7390991;19;20089;-75
2022/09/16 03:01:23;;;;;;;0.30;0.30;;;;;;;14.26;100.00;99891.41;7393237;19;20022;-75
2022/09/16 03:03:53;;;;;;;0.38;0.30;;;;;;;14.37;100.00;99897.09;7392726;19;20440;-75
2022/09/16 03:06:24;;;;;;;0.15;0.15;;;;;;;14.38;100.00;99899.38;7392298;19;20014;-75
2022/09/16 03:08:52;;;;;;;0.30;0.30;;;;;;;14.38;100.00;99904.22;7388692;19;20018;-75
2022/09/16 03:11:42;;;;;;;0.73;0.73;;;;;;;14.42;100.00;99899.19;7391200;19;20018;-75
2022/09/16 03:14:53;;;;;;;3.72;1.05;;;;;;;14.41;100.00;99903.22;7388282;19;20034;-75
2022/09/16 03:17:48;;;;;;;1.23;1.15;;;;;;;14.17;100.00;99900.75;7389640;19;20019;-75
2022/09/16 03:20:26;;;;;;;0.28;0.28;;;;;;;14.17;100.00;99895.16;7389136;19;20022;-75
2022/09/16 03:23:34;;;;;;;0.45;0.45;;;;;;;14.22;100.00;99897.25;7394728;19;20614;-74
2022/09/16 03:26:10;;;;;;;0.40;0.40;;;;;;;14.37;100.00;99891.50;7391693;19;20340;-75
2022/09/16 03:28:42;;;;;;;0.20;0.20;;;;;;;14.36;100.00;99901.16;7393370;19;20339;-75
2022/09/16 03:31:23;;;;;;;2.30;1.05;;;;;;;14.31;100.00;99899.09;7392134;19;20471;-76
2022/09/16 03:33:58;;;;;;;0.75;0.50;;;;;;;14.33;100.00;99893.78;7391434;19;20022;-75
2022/09/16 03:36:32;;;;;;;1.35;0.52;;;;;;;14.41;100.00;99897.63;7391807;19;20035;-75
2022/09/16 03:39:00;;;;;;;0.20;0.20;;;;;;;14.42;100.00;99896.38;7390158;19;20037;-75
2022/09/16 03:41:29;;;;;;;0.30;0.30;;;;;;;14.46;100.00;99899.69;7388628;19;20022;-76
2022/09/16 03:43:57;;;;;;;0.32;0.32;;;;;;;14.33;100.00;99896.56;7388263;19;20025;-75
2022/09/16 03:46:27;;;;;;;0.20;0.20;;;;;;;14.34;100.00;99903.69;7392256;19;20014;-75
2022/09/16 03:48:57;;;;;;;0.50;0.50;;;;;;;14.30;100.00;99897.56;7388443;19;20117;-75
2022/09/16 03:51:24;;;;;;;0.57;0.57;;;;;;;14.20;100.00;99901.81;7389962;19;20018;-75
2022/09/16 03:53:52;;;;;;;2.15;0.60;;;;;;;14.17;100.00;99900.00;7388777;19;20141;-76
2022/09/16 03:56:19;;;;;;;0.28;0.28;;;;;;;14.24;100.00;99910.75;7390445;19;20426;-75
2022/09/16 03:58:47;;;;;;;0.35;0.35;;;;;;;14.22;100.00;99907.66;7390361;19;20032;-75
2022/09/16 04:01:13;;;;;;;0.65;0.40;;;;;;;14.48;100.00;99913.97;7390226;19;20011;-75
2022/09/16 04:03:40;;;;;;;0.30;0.30;;;;;;;14.55;100.00;99913.50;7390131;19;20018;-75
2022/09/16 04:06:07;;;;;;;0.43;0.40;;;;;;;14.60;100.00;99909.94;7389235;19;20019;-75
2022/09/16 04:08:34;;;;;;;0.60;0.40;;;;;;;14.40;100.00;99910.88;7388516;19;20018;-74
2022/09/16 04:11:04;;;;;;;0.38;0.38;;;;;;;14.29;100.00;99907.25;7389119;19;20760;-75
2022/09/16 04:13:32;;;;;;;0.75;0.60;;;;;;;14.14;100.00;99903.81;7394138;19;20011;-75
2022/09/16 04:15:59;;;;;;;0.57;0.40;;;;;;;14.05;100.00;99912.38;7390009;19;20022;-75
2022/09/16 04:18:25;;;;;;;0.75;0.70;;;;;;;13.96;100.00;99906.97;7389425;19;20361;-76
2022/09/16 04:20:58;;;;;;;0.40;0.40;;;;;;;13.92;100.00;99903.63;7388801;19;20010;-75
2022/09/16 04:23:26;;;;;;;0.60;0.60;;;;;;;13.78;100.00;99898.94;7391126;19;20037;-75
2022/09/16 04:25:56;;;;;;;0.40;0.40;;;;;;;13.66;100.00;99893.22;7389423;19;20025;-75
2022/09/16 04:28:22;;;;;;;0.20;0.20;;;;;;;13.59;100.00;99907.69;7391720;19;20509;-75
2022/09/16 04:30:48;;;;;;;1.95;0.68;;;;;;;13.60;100.00;99908.44;7390258;19;20021;-75
2022/09/16 04:33:14;;;;;;;0.38;0.30;;;;;;;13.54;100.00;99914.00;7393363;19;20026;-75
2022/09/16 04:35:40;;;;;;;0.38;0.20;;;;;;;13.37;100.00;99918.66;7387503;19;20106;-75
2022/09/16 04:38:06;;;;;;;1.65;0.60;;;;;;;13.21;100.00;99924.84;7384719;19;20489;-75
2022/09/16 04:40:32;;;;;;;0.80;0.80;;;;;;;13.14;100.00;99928.06;7389224;19;20053;-75
2022/09/16 04:42:59;;;;;;;0.77;0.63;;;;;;;13.25;100.00;99930.22;7390432;19;20045;-75
2022/09/16 04:45:25;;;;;;;0.30;0.30;;;;;;;13.29;100.00;99923.16;7388997;19;20018;-75
2022/09/16 04:47:56;;;;;;;0.40;0.40;;;;;;;13.34;100.00;99925.22;7389268;19;20361;-75
2022/09/16 04:50:22;;;;;;;0.70;0.63;;;;;;;13.44;100.00;99923.06;7389129;19;20014;-75
2022/09/16 04:52:50;;;;;;;1.13;0.40;;;;;;;13.34;100.00;99930.81;7389924;19;20035;-75
2022/09/16 04:55:17;;;;;;;0.50;0.50;;;;;;;13.19;100.00;99930.16;7385212;19;20021;-75
2022/09/16 04:57:43;;;;;;;0.95;0.82;;;;;;;13.11;100.00;99937.44;7387176;19;20014;-75
2022/09/16 05:00:10;;;;;;;0.85;0.50;;;;;;;13.23;100.00;99938.34;7389037;19;20018;-75
2022/09/16 05:02:36;;;;;;;0.35;0.35;;;;;;;13.18;100.00;99939.81;7391598;19;20025;-75
2022/09/16 05:05:02;;;;;;;1.65;0.65;;;;;;;13.24;100.00;99946.22;7388819;19;20500;-74
2022/09/16 05:07:28;;;;;;;0.35;0.35;;;;;;;13.20;100.00;99948.47;7387877;19;20030;-75
2022/09/16 05:09:55;;;;;;;1.58;0.70;;;;;;;13.24;100.00;99937.84;7384739;19;20021;-75
2022/09/16 05:12:21;;;;;;;0.50;0.50;;;;;;;13.20;100.00;99931.69;7390080;19;20018;-75
2022/09/16 05:14:47;;;;;;;0.40;0.40;;;;;;;13.08;100.00;99930.03;7387493;19;20485;-75
2022/09/16 05:17:13;;;;;;;0.52;0.52;;;;;;;13.05;100.00;99931.03;7385247;19;20025;-76
2022/09/16 05:19:39;;;;;;;0.55;0.55;;;;;;;12.81;100.00;99934.00;7387158;19;20018;-76
2022/09/16 05:22:06;;;;;;;0.30;0.30;;;;;;;12.92;100.00;99933.38;7389806;19;20473;-75
2022/09/16 05:24:35;;;;;;;0.77;0.77;;;;;;;12.94;100.00;99944.81;7387489;19;20014;-75
2022/09/16 05:27:02;;;;;;;0.30;0.30;;;;;;;12.94;100.00;99956.00;7388823;19;20026;-75
2022/09/16 05:29:28;;;;;;;0.43;0.43;;;;;;;12.95;100.00;99954.75;7386400;19;20025;-75
2022/09/16 05:31:54;;;;;;;1.38;0.70;;;;;;;12.89;100.00;99956.69;7388348;19;20014;-75
2022/09/16 05:34:22;;;;;;;0.25;0.25;;;;;;;12.92;100.00;99952.94;7386619;19;20018;-75
2022/09/16 05:36:52;;;;;;;0.40;0.40;;;;;;;12.86;100.00;99954.91;7385290;19;20018;-75
2022/09/16 05:39:19;;;;;;;2.83;1.00;;;;;;;12.79;100.00;99952.50;7384747;19;20018;-75
2022/09/16 05:41:46;;;;;;;1.10;0.50;;;;;;;12.64;100.00;99960.19;7387866;19;20052;-75
2022/09/16 05:44:13;;;;;;;1.17;1.00;;;;;;;12.77;100.00;99950.22;7388004;19;20536;-74
2022/09/16 05:46:40;;;;;;;0.20;0.20;;;;;;;12.72;100.00;99952.91;7387293;19;20488;-74
2022/09/16 05:49:07;;;;;;;0.63;0.50;;;;;;;12.84;100.00;99954.63;7385529;19;20041;-74
2022/09/16 05:51:35;;;;;;;0.75;0.57;;;;;;;12.93;100.00;99962.84;7388035;19;20199;-74
2022/09/16 05:54:01;;;;;;;0.63;0.63;;;;;;;12.98;100.00;99962.16;7386538;19;20349;-75
2022/09/16 05:56:29;;;;;;;0.52;0.52;;;;;;;12.99;100.00;99965.72;7390825;19;20058;-74
2022/09/16 05:58:58;;;;;;;0.40;0.40;;;;;;;12.88;100.00;99972.72;7388660;19;20018;-75
2022/09/16 06:01:28;;;;;;;2.30;0.50;;;;;;;13.07;100.00;99973.22;7384860;19;20463;-75
2022/09/16 06:03:54;;;;;;;0.50;0.50;;;;;;;13.12;100.00;99975.34;7383828;19;20018;-75
2022/09/16 06:06:32;;;;;;;1.02;1.02;;;;;;;13.32;100.00;99972.50;7384937;19;20011;-75
2022/09/16 06:09:03;;;;;;;1.85;0.68;;;;;;;13.52;100.00;99985.69;7384127;19;20018;-74
2022/09/16 06:11:29;;;;;;;2.03;0.55;;;;;;;13.58;100.00;99995.69;7385495;19;20085;-75
2022/09/16 06:13:58;;;;;;;25.95;2.17;;;;;;;13.54;100.00;99989.53;7386149;19;20015;-74
2022/09/16 06:16:26;;;;;;;1.63;0.93;;;;;;;13.61;100.00;99991.13;7385473;19;20019;-75
2022/09/16 06:18:56;;;;;;;1.27;1.15;;;;;;;13.52;100.00;99996.88;7391082;19;20026;-75
2022/09/16 06:21:23;;;;;;;0.63;0.63;;;;;;;13.35;100.00;100004.31;7395208;19;20010;-75
2022/09/16 06:23:49;;;;;;;0.90;0.57;;;;;;;13.25;100.00;100009.31;7395231;19;20018;-74
2022/09/16 06:26:19;;;;;;;0.57;0.57;;;;;;;13.24;100.00;100007.75;7396512;19;20883;-75
2022/09/16 06:28:46;;;;;;;2.90;1.08;;;;;;;13.20;100.00;100003.63;7393651;19;20057;-75
2022/09/16 06:31:14;;;;;;;0.45;0.45;;;;;;;13.32;100.00;100011.66;7395749;19;20027;-75
2022/09/16 06:33:41;;;;;;;0.40;0.40;;;;;;;13.47;100.00;100006.00;7395916;19;20369;-75
2022/09/16 06:36:12;;;;;;;0.60;0.60;;;;;;;13.43;100.00;100008.22;7396400;19;20143;-75
2022/09/16 06:38:38;;;;;;;1.73;0.40;;;;;;;13.54;100.00;100017.53;7393362;19;20022;-74
2022/09/16 06:41:06;;;;;;;0.47;0.47;;;;;;;13.61;100.00;100022.69;7394740;19;20018;-75
2022/09/16 06:43:33;;;;;;;1.35;0.70;;;;;;;13.68;100.00;100016.66;7394129;19;20010;-75
2022/09/16 06:46:01;;;;;;;2.90;1.85;;;;;;;13.64;100.00;100018.88;7394779;19;20127;-74
2022/09/16 06:48:30;;;;;;;11.45;1.73;;;;;;;13.71;100.00;100019.75;7393817;19;20416;-75
2022/09/16 06:51:01;;;;;;;14.38;2.47;;;;;;;13.83;100.00;100026.97;7394703;19;20611;-74
2022/09/16 06:53:28;;;;;;;3.97;2.22;;;;;;;13.89;100.00;100031.38;7393022;19;20019;-75
2022/09/16 06:55:54;;;;;;;1.00;1.00;;;;;;;13.99;100.00;100035.53;7391383;19;20075;-74
2022/09/16 06:58:21;;;;;;;5.43;1.55;;;;;;;14.08;100.00;100031.78;7395077;19;20025;-75
2022/09/16 07:00:47;;;;;;;2.05;1.02;;;;;;;14.06;100.00;100034.31;7395642;19;20096;-74
2022/09/16 07:03:13;;;;;;;2.47;0.70;;;;;;;14.10;100.00;100040.47;7395130;19;20082;-75
2022/09/16 07:05:39;;;;;;;0.90;0.70;;;;;;;14.56;100.00;100037.56;7392700;19;20472;-75
2022/09/16 07:08:06;;;;;;;1.75;1.58;;;;;;;14.72;100.00;100046.13;7389163;19;20019;-75
2022/09/16 07:10:32;;;;;;;7.03;1.52;;;;;;;14.70;100.00;100043.06;7393322;19;20018;-75
2022/09/16 07:12:58;;;;;;;0.77;0.77;;;;;;;14.78;100.00;100051.75;7394418;19;20082;-76
2022/09/16 07:15:24;;;;;;;0.35;0.35;;;;;;;14.95;100.00;100049.81;7388845;19;20346;-76
2022/09/16 07:17:54;;;;;;;2.53;1.50;;;;;;;14.94;100.00;100051.09;7392862;19;20022;-75
2022/09/16 07:20:20;;;;;;;0.80;0.70;;;;;;;14.92;100.00;100045.97;7390037;19;20014;-75
2022/09/16 07:22:49;;;;;;;0.80;0.65;;;;;;;14.92;100.00;100042.44;7392447;19;20345;-76
2022/09/16 07:25:16;;;;;;;0.82;0.82;;;;;;;14.85;100.00;100042.88;7390721;19;20014;-76
2022/09/16 07:27:42;;;;;;;16.13;1.27;;;;;;;15.05;100.00;100045.56;7394930;19;20042;-75
2022/09/16 07:30:08;;;;;;;0.40;0.40;;;;;;;14.97;100.00;100044.47;7388543;19;20022;-76
2022/09/16 07:32:34;;;;;;;3.03;0.77;;;;;;;14.87;100.00;100045.97;7394417;19;20038;-75
2022/09/16 07:35:01;;;;;;;0.70;0.65;;;;;;;14.92;100.00;100053.66;7388682;19;20589;-76
2022/09/16 07:37:27;;;;;;;1.17;0.65;;;;;;;15.01;100.00;100061.84;7389569;19;20022;-75
2022/09/16 07:39:53;;;;;;;1.25;1.15;;;;;;;15.12;100.00;100062.69;7388980;19;20014;-75
2022/09/16 07:42:19;;;;;;;0.40;0.40;;;;;;;15.09;100.00;100055.25;7392399;19;20018;-76
2022/09/16 07:44:45;;;;;;;0.57;0.57;;;;;;;15.27;100.00;100059.69;7390443;19;20349;-76
2022/09/16 07:47:11;;;;;;;0.50;0.50;;;;;;;15.24;100.00;100057.13;7391001;19;20019;-75
2022/09/16 07:49:37;;;;;;;0.40;0.30;;;;;;;15.47;100.00;100064.41;7388831;19;20014;-75
2022/09/16 07:52:03;;;;;;;0.28;0.28;;;;;;;15.67;100.00;100067.03;7392254;19;20078;-76
2022/09/16 07:54:30;;;;;;;0.43;0.30;;;;;;;15.67;100.00;100064.22;7386525;19;20357;-76
2022/09/16 07:56:56;;;;;;;0.30;0.30;;;;;;;15.82;100.00;100067.59;7390745;19;20026;-75
2022/09/16 07:59:23;;;;;;;0.40;0.40;;;;;;;15.82;100.00;100067.59;7388133;19;20025;-76
2022/09/16 08:01:49;;;;;;;0.32;0.32;;;;;;;16.19;100.00;100071.00;7391045;19;20507;-76
2022/09/16 08:04:17;;;;;;;0.40;0.35;;;;;;;16.28;100.00;100076.38;7390866;19;20022;-76
2022/09/16 08:06:43;;;;;;;0.57;0.57;;;;;;;16.16;100.00;100085.28;7391037;19;20126;-76
2022/09/16 08:09:09;;;;;;;0.22;0.22;;;;;;;16.14;100.00;100087.81;7388865;19;20015;-76
2022/09/16 08:11:35;;;;;;;2.50;0.65;;;;;;;16.21;100.00;100081.72;7391074;19;20011;-76
2022/09/16 08:14:02;;;;;;;0.40;0.40;;;;;;;16.32;100.00;100084.53;7389525;19;20101;-75
2022/09/16 08:16:28;;;;;;;0.20;0.20;;;;;;;16.18;100.00;100082.72;7390138;19;20088;-76
2022/09/16 08:18:56;;;;;;;0.17;0.17;;;;;;;16.20;100.00;100085.81;7389082;19;20366;-76
2022/09/16 08:21:26;;;;;;;0.20;0.20;;;;;;;16.36;100.00;100094.25;7390255;19;20025;-76
2022/09/16 08:23:53;;;;;;;0.45;0.45;;;;;;;16.49;100.00;100094.53;7389510;19;20059;-76
2022/09/16 08:26:21;;;;;;;0.35;0.35;;;;;;;16.49;100.00;100102.19;7387614;19;20129;-76
2022/09/16 08:28:48;;;;;;;0.20;0.20;;;;;;;16.54;100.00;100096.63;7391037;19;20479;-76
2022/09/16 08:31:15;;;;;;;0.40;0.30;;;;;;;16.65;100.00;100107.84;7387597;19;20082;-77
2022/09/16 08:33:41;;;;;;;0.38;0.38;;;;;;;16.78;100.00;100107.34;7386700;19;20010;-76
2022/09/16 08:36:18;;;;;;;0.40;0.40;;;;;;;16.97;100.00;100107.56;7388741;19;20391;-77
2022/09/16 08:38:46;;;;;;;0.20;0.20;;;;;;;16.89;100.00;100112.19;7386333;19;20026;-76
2022/09/16 08:41:22;;;;;;;0.40;0.40;;;;;;;17.02;100.00;100106.81;7388625;19;20023;-76
2022/09/16 08:43:57;;;;;;;1.15;0.30;;;;;;;17.10;100.00;100119.06;7389850;19;20027;-76
2022/09/16 08:46:39;;;;;;;0.68;0.68;;;;;;;17.05;100.00;100123.41;7387645;19;20014;-76
2022/09/16 08:49:28;;;;;;;0.85;0.38;;;;;;;17.06;100.00;100129.81;7387893;19;20031;-77
2022/09/16 08:51:56;;;;;;;0.30;0.30;;;;;;;16.99;100.00;100124.72;7387625;19;20014;-77
2022/09/16 08:54:40;;;;;;;1.00;0.65;;;;;;;16.92;100.00;100122.41;7386252;19;20011;-76
2022/09/16 08:57:16;;;;;;;0.30;0.30;;;;;;;17.03;100.00;100122.41;7389138;19;20430;-77
2022/09/16 08:59:48;;;;;;;0.60;0.35;;;;;;;17.20;100.00;100132.34;7386109;19;20018;-77
2022/09/16 09:02:20;;;;;;;0.30;0.30;;;;;;;17.19;100.00;100125.19;7389834;19;20022;-77
2022/09/16 09:04:46;;;;;;;0.28;0.28;;;;;;;17.18;100.00;100128.50;7387135;19;20047;-76
2022/09/16 09:07:40;;;;;;;1.27;0.52;;;;;;;17.43;100.00;100133.09;7387832;19;20018;-76
2022/09/16 09:10:22;;;;;;;0.25;0.25;;;;;;;17.53;100.00;100125.91;7388741;19;20014;-76
2022/09/16 09:13:07;;;;;;;0.30;0.30;;;;;;;17.66;100.00;100139.41;7389907;19;20014;-76
2022/09/16 09:15:56;;;;;;;0.45;0.45;;;;;;;17.80;100.00;100133.47;7384776;19;20429;-76
2022/09/16 09:19:04;;;;;;;0.20;0.20;;;;;;;17.91;100.00;100138.31;7388282;19;20019;-76
2022/09/16 09:21:35;;;;;;;2.33;0.43;;;;;;;18.14;100.00;100140.50;7386501;19;20024;-76
2022/09/16 09:24:14;;;;;;;0.20;0.10;;;;;;;18.45;100.00;100144.19;7386598;19;20018;-76
2022/09/16 09:26:54;;;;;;;0.30;0.30;;;;;;;18.50;100.00;100151.81;7388452;19;20021;-76
2022/09/16 09:29:38;;;;;;;0.40;0.40;;;;;;;18.60;100.00;100142.50;7386281;19;20014;-76
2022/09/16 09:32:07;;;;;;;5.70;0.40;;;;;;;18.91;100.00;100138.41;7387119;19;20492;-76
2022/09/16 09:35:01;;;;;;;1.30;0.30;;;;;;;18.97;100.00;100146.84;7384902;19;20384;-76
2022/09/16 09:37:55;;;;;;;3.33;0.85;;;;;;;18.81;100.00;100152.13;7386636;19;20021;-77
2022/09/16 09:40:42;;;;;;;0.10;0.10;;;;;;;18.54;100.00;100149.47;7386843;19;20025;-77
2022/09/16 09:43:15;;;;;;;0.10;0.10;;;;;;;18.51;100.00;100150.53;7391093;19;20032;-76
2022/09/16 09:46:07;;;;;;;0.20;0.10;;;;;;;18.69;100.00;100149.91;7386264;19;20425;-76
2022/09/16 09:48:41;;;;;;;0.10;0.10;;;;;;;18.78;100.00;100146.75;7387254;19;20039;-76
2022/09/16 09:51:22;;;;;;;0.25;0.25;;;;;;;18.84;100.00;100162.34;7385999;19;20549;-76
2022/09/16 09:53:56;;;;;;;0.10;0.00;;;;;;;18.78;100.00;100150.34;7384426;19;20027;-76
2022/09/16 09:56:41;;;;;;;1.55;0.20;;;;;;;18.63;100.00;100180.19;7386200;19;20410;-76
2022/09/16 09:59:47;;;;;;;0.30;0.30;;;;;;;18.67;100.00;100169.41;7385620;19;20126;-75
2022/09/16 10:02:16;;;;;;;0.90;0.25;;;;;;;18.72;100.00;100162.94;7387961;19;20018;-75
2022/09/16 10:04:43;;;;;;;0.10;0.03;;;;;;;18.86;100.00;100170.31;7386811;19;20086;-76
2022/09/16 10:07:12;;;;;;;0.40;0.40;;;;;;;18.91;100.00;100161.00;7384833;19;20018;-76
2022/09/16 10:09:48;;;;;;;0.17;0.17;;;;;;;18.98;99.77;100165.31;7385732;19;20041;-76
2022/09/16 10:12:25;;;;;;;0.10;0.10;;;;;;;19.09;100.00;100168.03;7386685;19;20495;-77
2022/09/16 10:14:51;;;;;;;0.10;0.10;;;;;;;19.01;100.00;100162.22;7384557;19;20018;-76
2022/09/16 10:17:18;;;;;;;0.10;0.10;;;;;;;19.18;98.88;100167.69;7384955;19;20010;-76
2022/09/16 10:20:05;;;;;;;0.10;0.10;;;;;;;19.29;98.11;100161.94;7383839;19;20022;-76
2022/09/16 10:22:33;;;;;;;0.10;0.00;;;;;;;19.43;99.60;100172.88;7386630;19;20078;-76
2022/09/16 10:25:03;;;;;;;0.10;0.00;;;;;;;19.37;100.00;100175.00;7383660;19;20014;-76
2022/09/16 10:27:34;;;;;;;0.68;0.20;;;;;;;19.46;100.00;100171.06;7388570;19;20015;-76
2022/09/16 10:30:15;;;;;;;0.20;0.20;;;;;;;19.23;100.00;100169.72;7384508;19;20023;-76
2022/09/16 10:32:50;;;;;;;0.10;0.10;;;;;;;19.22;98.86;100168.94;7387265;19;20077;-76
2022/09/16 10:35:22;;;;;;;0.10;0.10;;;;;;;19.28;98.58;100158.34;7384553;19;20487;-76
2022/09/16 10:38:01;;;;;;;0.10;0.00;;;;;;;19.15;98.00;100175.16;7385826;19;20461;-75
2022/09/16 10:40:28;;;;;;;0.10;0.10;;;;;;;19.14;96.38;100162.34;7386376;19;20026;-76
2022/09/16 10:43:03;;;;;;;0.10;0.10;;;;;;;19.29;94.17;100174.03;7387075;19;20018;-77
2022/09/16 10:45:34;;;;;;;0.10;0.03;;;;;;;19.54;93.25;100172.75;7383036;19;20010;-76
2022/09/16 10:48:03;;;;;;;;;;;;;;;19.56;93.28;100172.22;7384456;19;20023;-79
2022/09/16 10:50:29;;;;;;;0.75;0.10;;;;;;;19.78;90.57;100171.97;7384355;19;19923;-80
2022/09/16 10:52:55;;;;;;;0.63;0.20;;;;;;;20.05;89.49;100170.13;7387099;19;20082;-80
2022/09/16 10:55:39;;;;;;;0.10;0.10;;;;;;;20.08;86.86;100175.47;7384348;19;20511;-79
2022/09/16 10:58:17;;;;;;;0.32;0.20;;;;;;;20.08;87.19;100177.50;7382545;19;20022;-79
2022/09/16 11:00:55;;;;;;;0.10;0.00;;;;;;;20.14;85.79;100176.13;7383915;19;20037;-80
2022/09/16 11:03:50;;;;;;;0.10;0.10;;;;;;;20.12;86.75;100178.75;7388739;19;20518;-79
2022/09/16 11:06:54;;;;;;;0.68;0.20;;;;;;;20.12;86.08;100172.34;7392508;19;20022;-79
2022/09/16 11:09:32;;;;;;;0.10;0.10;;;;;;;20.05;86.08;100181.41;7389105;19;20480;-79
2022/09/16 11:12:13;;;;;;;0.10;0.10;;;;;;;20.13;85.70;100165.38;7392470;19;20031;-80
2022/09/16 11:14:49;;;;;;;0.17;0.17;;;;;;;20.64;84.86;100181.13;7391611;19;20017;-80
2022/09/16 11:17:40;;;;;;;0.10;0.10;;;;;;;20.93;83.98;100173.72;7392141;19;20024;-80
2022/09/16 11:20:15;;;;;;;0.10;0.00;;;;;;;20.79;84.50;100178.56;7390811;19;20014;-80
2022/09/16 11:22:51;;;;;;;0.28;0.10;;;;;;;20.47;84.86;100174.94;7394550;19;20968;-79
2022/09/16 11:25:36;;;;;;;0.10;0.10;;;;;;;20.34;83.90;100180.53;7391070;19;20015;-79
2022/09/16 11:28:24;;;;;;;0.10;0.10;;;;;;;20.33;82.19;100170.53;7394076;19;20018;-79
2022/09/16 11:31:16;;;;;;;0.10;0.10;;;;;;;20.55;81.49;100184.38;7391736;19;20018;-79
2022/09/16 11:33:56;;;;;;;0.10;0.10;;;;;;;20.42;80.01;100182.22;7390787;19;20032;-79
2022/09/16 11:36:40;;;;;;;0.20;0.20;;;;;;;20.47;80.25;100177.78;7389015;19;20480;-80
2022/09/16 11:39:30;;;;;;;0.10;0.00;;;;;;;20.22;81.12;100174.28;7389992;19;20462;-80
2022/09/16 11:42:27;;;;;;;0.10;0.00;;;;;;;20.39;80.26;100182.53;7391473;19;20022;-79
2022/09/16 11:45:14;;;;;;;0.10;0.00;;;;;;;20.36;79.54;100177.94;7392302;19;20042;-80
2022/09/16 11:48:30;;;;;;;0.20;0.20;;;;;;;20.31;79.28;100175.97;7391356;19;20039;-78